sensor_id;sensor_type;location;lat;lon;timestamp;pressure;altitude;pressure_sealevel;temperature;humidity
12146;BME280;6136;47.032;15.398;2022-12-07T00:01:28;97426.94;;;2.06;nan
12146;BME280;6136;47.032;15.398;2022-12-07T00:03:58;97429.34;;;2.12;nan
12146;BME280;6136;47.032;15.398;2022-12-07T00:06:34;97413.09;;;2.02;nan
12146;BME280;6136;47.032;15.398;2022-12-07T00:09:02;97421.44;;;2.15;nan
12146;BME280;6136;47.032;15.398;2022-12-07T00:11:32;97409.81;;;1.95;nan
12146;BME280;6136;47.032;15.398;2022-12-07T00:14:03;97410.53;;;2.01;nan
12146;BME280;6136;47.032;15.398;2022-12-07T00:16:34;97403.47;;;2.04;nan
12146;BME280;6136;47.032;15.398;2022-12-07T00:19:03;97389.69;;;1.99;nan
12146;BME280;6136;47.032;15.398;2022-12-07T00:21:34;97412.97;;;2.07;nan
12146;BME280;6136;47.032;15.398;2022-12-07T00:24:04;97411.25;;;2.06;nan
12146;BME280;6136;47.032;15.398;2022-12-07T00:26:34;97412.16;;;2.05;nan
12146;BME280;6136;47.032;15.398;2022-12-07T00:29:06;97416.47;;;2.06;nan
12146;BME280;6136;47.032;15.398;2022-12-07T00:31:36;97414.78;;;2.05;nan
12146;BME280;6136;47.032;15.398;2022-12-07T00:34:06;97410.47;;;2.02;nan
12146;BME280;6136;47.032;15.398;2022-12-07T00:36:36;97411.34;;;2.03;nan
12146;BME280;6136;47.032;15.398;2022-12-07T00:39:04;97395.00;;;1.96;nan
12146;BME280;6136;47.032;15.398;2022-12-07T00:41:32;97395.06;;;1.93;nan
12146;BME280;6136;47.032;15.398;2022-12-07T00:44:00;97408.09;;;1.94;nan
12146;BME280;6136;47.032;15.398;2022-12-07T00:46:29;97413.25;;;1.98;nan
12146;BME280;6136;47.032;15.398;2022-12-07T00:48:57;97400.41;;;1.90;nan
12146;BME280;6136;47.032;15.398;2022-12-07T00:51:26;97389.09;;;1.89;nan
12146;BME280;6136;47.032;15.398;2022-12-07T00:53:56;97408.22;;;1.91;nan
12146;BME280;6136;47.032;15.398;2022-12-07T00:56:25;97401.28;;;1.90;nan
12146;BME280;6136;47.032;15.398;2022-12-07T00:58:56;97410.81;;;1.91;nan
12146;BME280;6136;47.032;15.398;2022-12-07T01:01:27;97391.97;;;1.82;nan
12146;BME280;6136;47.032;15.398;2022-12-07T01:03:56;97392.03;;;1.79;nan
12146;BME280;6136;47.032;15.398;2022-12-07T01:06:25;97390.47;;;1.73;nan
12146;BME280;6136;47.032;15.398;2022-12-07T01:08:54;97392.16;;;1.76;nan
12146;BME280;6136;47.032;15.398;2022-12-07T01:11:25;97410.91;;;1.88;nan
12146;BME280;6136;47.032;15.398;2022-12-07T01:13:56;97388.88;;;1.69;nan
12146;BME280;6136;47.032;15.398;2022-12-07T01:16:26;97404.34;;;1.75;nan
12146;BME280;6136;47.032;15.398;2022-12-07T01:18:56;97403.72;;;1.67;nan
12146;BME280;6136;47.032;15.398;2022-12-07T01:21:26;97403.94;;;1.60;nan
12146;BME280;6136;47.032;15.398;2022-12-07T01:23:57;97409.22;;;1.58;nan
12146;BME280;6136;47.032;15.398;2022-12-07T01:26:27;97416.16;;;1.59;nan
12146;BME280;6136;47.032;15.398;2022-12-07T01:28:55;97400.72;;;1.50;nan
12146;BME280;6136;47.032;15.398;2022-12-07T01:31:26;97397.81;;;1.61;nan
12146;BME280;6136;47.032;15.398;2022-12-07T01:33:56;97414.09;;;1.70;nan
12146;BME280;6136;47.032;15.398;2022-12-07T01:36:26;97384.09;;;1.54;nan
12146;BME280;6136;47.032;15.398;2022-12-07T01:38:56;97405.56;;;1.64;nan
12146;BME280;6136;47.032;15.398;2022-12-07T01:41:28;97379.59;;;1.59;nan
12146;BME280;6136;47.032;15.398;2022-12-07T01:44:21;97396.78;;;1.66;nan
12146;BME280;6136;47.032;15.398;2022-12-07T01:46:51;97390.03;;;1.59;nan
12146;BME280;6136;47.032;15.398;2022-12-07T01:49:28;97391.81;;;1.57;nan
12146;BME280;6136;47.032;15.398;2022-12-07T01:52:04;97388.41;;;1.55;nan
12146;BME280;6136;47.032;15.398;2022-12-07T01:54:35;97390.03;;;1.59;nan
12146;BME280;6136;47.032;15.398;2022-12-07T01:57:06;97394.16;;;1.66;nan
12146;BME280;6136;47.032;15.398;2022-12-07T01:59:36;97372.56;;;1.61;nan
12146;BME280;6136;47.032;15.398;2022-12-07T02:02:08;97377.78;;;1.61;nan
12146;BME280;6136;47.032;15.398;2022-12-07T02:04:40;97383.75;;;1.65;nan
12146;BME280;6136;47.032;15.398;2022-12-07T02:07:08;97379.44;;;1.64;nan
12146;BME280;6136;47.032;15.398;2022-12-07T02:09:36;97370.22;;;1.52;nan
12146;BME280;6136;47.032;15.398;2022-12-07T02:12:06;97357.53;;;1.40;nan
12146;BME280;6136;47.032;15.398;2022-12-07T02:14:34;97376.34;;;1.51;nan
12146;BME280;6136;47.032;15.398;2022-12-07T02:17:08;97356.69;;;1.39;nan
12146;BME280;6136;47.032;15.398;2022-12-07T02:20:05;97373.69;;;1.52;nan
12146;BME280;6136;47.032;15.398;2022-12-07T02:22:56;97372.84;;;1.52;nan
12146;BME280;6136;47.032;15.398;2022-12-07T02:25:37;97376.38;;;1.49;nan
12146;BME280;6136;47.032;15.398;2022-12-07T02:28:18;97354.94;;;1.40;nan
12146;BME280;6136;47.032;15.398;2022-12-07T02:30:52;97367.97;;;1.40;nan
12146;BME280;6136;47.032;15.398;2022-12-07T02:33:27;97348.19;;;1.33;nan
12146;BME280;6136;47.032;15.398;2022-12-07T02:36:00;97357.84;;;1.29;nan
12146;BME280;6136;47.032;15.398;2022-12-07T02:38:35;97338.91;;;1.23;nan
12146;BME280;6136;47.032;15.398;2022-12-07T02:41:10;97368.31;;;1.28;nan
12146;BME280;6136;47.032;15.398;2022-12-07T02:43:43;97370.19;;;1.24;nan
12146;BME280;6136;47.032;15.398;2022-12-07T02:46:17;97369.50;;;1.17;nan
12146;BME280;6136;47.032;15.398;2022-12-07T02:48:49;97366.22;;;1.11;nan
12146;BME280;6136;47.032;15.398;2022-12-07T02:51:18;97367.78;;;1.16;nan
12146;BME280;6136;47.032;15.398;2022-12-07T02:53:46;97363.19;;;1.25;nan
12146;BME280;6136;47.032;15.398;2022-12-07T02:56:22;97361.66;;;1.17;nan
12146;BME280;6136;47.032;15.398;2022-12-07T02:59:02;97371.75;;;1.30;nan
12146;BME280;6136;47.032;15.398;2022-12-07T03:01:43;97363.94;;;1.28;nan
12146;BME280;6136;47.032;15.398;2022-12-07T03:04:28;97366.72;;;1.24;nan
12146;BME280;6136;47.032;15.398;2022-12-07T03:07:05;97369.38;;;1.21;nan
12146;BME280;6136;47.032;15.398;2022-12-07T03:09:38;97364.22;;;1.19;nan
12146;BME280;6136;47.032;15.398;2022-12-07T03:12:16;97361.56;;;1.21;nan
12146;BME280;6136;47.032;15.398;2022-12-07T03:14:51;97353.84;;;1.17;nan
12146;BME280;6136;47.032;15.398;2022-12-07T03:17:26;97361.59;;;1.19;nan
12146;BME280;6136;47.032;15.398;2022-12-07T03:19:58;97363.50;;;1.14;nan
12146;BME280;6136;47.032;15.398;2022-12-07T03:22:31;97338.47;;;1.07;nan
12146;BME280;6136;47.032;15.398;2022-12-07T03:25:03;97347.31;;;1.03;nan
12146;BME280;6136;47.032;15.398;2022-12-07T03:27:37;97347.31;;;1.03;nan
12146;BME280;6136;47.032;15.398;2022-12-07T03:30:08;97345.56;;;1.03;nan
12146;BME280;6136;47.032;15.398;2022-12-07T03:32:43;97348.31;;;0.97;nan
12146;BME280;6136;47.032;15.398;2022-12-07T03:35:17;97348.47;;;0.91;nan
12146;BME280;6136;47.032;15.398;2022-12-07T03:37:51;97343.19;;;0.94;nan
12146;BME280;6136;47.032;15.398;2022-12-07T03:40:24;97343.94;;;0.98;nan
12146;BME280;6136;47.032;15.398;2022-12-07T03:42:54;97340.63;;;0.93;nan
12146;BME280;6136;47.032;15.398;2022-12-07T03:45:32;97327.00;;;0.82;nan
12146;BME280;6136;47.032;15.398;2022-12-07T03:48:09;97319.25;;;0.80;nan
12146;BME280;6136;47.032;15.398;2022-12-07T03:50:48;97339.78;;;0.91;nan
12146;BME280;6136;47.032;15.398;2022-12-07T03:53:22;97332.81;;;0.91;nan
12146;BME280;6136;47.032;15.398;2022-12-07T03:55:53;97343.28;;;0.90;nan
12146;BME280;6136;47.032;15.398;2022-12-07T03:58:23;97347.63;;;0.91;nan
12146;BME280;6136;47.032;15.398;2022-12-07T04:00:52;97334.03;;;0.80;nan
12146;BME280;6136;47.032;15.398;2022-12-07T04:03:21;97345.22;;;0.83;nan
12146;BME280;6136;47.032;15.398;2022-12-07T04:05:49;97351.47;;;0.77;nan
12146;BME280;6136;47.032;15.398;2022-12-07T04:08:18;97342.75;;;0.78;nan
12146;BME280;6136;47.032;15.398;2022-12-07T04:10:46;97354.94;;;0.78;nan
12146;BME280;6136;47.032;15.398;2022-12-07T04:13:14;97355.13;;;0.70;nan
12146;BME280;6136;47.032;15.398;2022-12-07T04:15:42;97349.13;;;0.67;nan
12146;BME280;6136;47.032;15.398;2022-12-07T04:18:10;97344.56;;;0.75;nan
12146;BME280;6136;47.032;15.398;2022-12-07T04:20:40;97350.53;;;0.80;nan
12146;BME280;6136;47.032;15.398;2022-12-07T04:23:08;97348.22;;;0.69;nan
12146;BME280;6136;47.032;15.398;2022-12-07T04:25:36;97347.34;;;0.69;nan
12146;BME280;6136;47.032;15.398;2022-12-07T04:28:04;97330.84;;;0.68;nan
12146;BME280;6136;47.032;15.398;2022-12-07T04:30:32;97324.13;;;0.60;nan
12146;BME280;6136;47.032;15.398;2022-12-07T04:33:00;97322.44;;;0.59;nan
12146;BME280;6136;47.032;15.398;2022-12-07T04:35:29;97344.97;;;0.60;nan
12146;BME280;6136;47.032;15.398;2022-12-07T04:37:58;97320.97;;;0.49;nan
12146;BME280;6136;47.032;15.398;2022-12-07T04:40:26;97335.22;;;0.68;nan
12146;BME280;6136;47.032;15.398;2022-12-07T04:42:55;97338.47;;;0.76;nan
12146;BME280;6136;47.032;15.398;2022-12-07T04:45:23;97317.78;;;0.70;nan
12146;BME280;6136;47.032;15.398;2022-12-07T04:47:51;97345.19;;;0.85;nan
12146;BME280;6136;47.032;15.398;2022-12-07T04:50:19;97335.22;;;0.68;nan
12146;BME280;6136;47.032;15.398;2022-12-07T04:52:47;97341.91;;;0.78;nan
12146;BME280;6136;47.032;15.398;2022-12-07T04:55:17;97341.91;;;0.78;nan
12146;BME280;6136;47.032;15.398;2022-12-07T04:57:45;97338.41;;;0.79;nan
12146;BME280;6136;47.032;15.398;2022-12-07T05:00:13;97335.88;;;0.74;nan
12146;BME280;6136;47.032;15.398;2022-12-07T05:02:42;97334.16;;;0.75;nan
12146;BME280;6136;47.032;15.398;2022-12-07T05:05:10;97333.19;;;0.79;nan
12146;BME280;6136;47.032;15.398;2022-12-07T05:07:38;97328.84;;;0.78;nan
12146;BME280;6136;47.032;15.398;2022-12-07T05:10:07;97335.97;;;0.73;nan
12146;BME280;6136;47.032;15.398;2022-12-07T05:12:37;97327.13;;;0.77;nan
12146;BME280;6136;47.032;15.398;2022-12-07T05:15:06;97337.72;;;0.72;nan
12146;BME280;6136;47.032;15.398;2022-12-07T05:17:34;97335.84;;;0.76;nan
12146;BME280;6136;47.032;15.398;2022-12-07T05:20:03;97336.59;;;0.81;nan
12146;BME280;6136;47.032;15.398;2022-12-07T05:22:31;97338.56;;;0.73;nan
12146;BME280;6136;47.032;15.398;2022-12-07T05:24:59;97324.88;;;0.65;nan
12146;BME280;6136;47.032;15.398;2022-12-07T05:27:28;97326.59;;;0.66;nan
12146;BME280;6136;47.032;15.398;2022-12-07T05:29:57;97344.50;;;0.78;nan
12146;BME280;6136;47.032;15.398;2022-12-07T05:32:26;97341.19;;;0.73;nan
12146;BME280;6136;47.032;15.398;2022-12-07T05:34:54;97337.75;;;0.71;nan
12146;BME280;6136;47.032;15.398;2022-12-07T05:37:22;97328.44;;;0.61;nan
12146;BME280;6136;47.032;15.398;2022-12-07T05:39:51;97330.09;;;0.65;nan
12146;BME280;6136;47.032;15.398;2022-12-07T05:42:19;97349.13;;;0.67;nan
12146;BME280;6136;47.032;15.398;2022-12-07T05:44:47;97339.00;;;0.56;nan
12146;BME280;6136;47.032;15.398;2022-12-07T05:47:17;97325.13;;;0.56;nan
12146;BME280;6136;47.032;15.398;2022-12-07T05:49:45;97343.84;;;0.70;nan
12146;BME280;6136;47.032;15.398;2022-12-07T05:52:13;97340.41;;;0.68;nan
12146;BME280;6136;47.032;15.398;2022-12-07T05:54:41;97326.91;;;0.54;nan
12146;BME280;6136;47.032;15.398;2022-12-07T05:57:10;97344.88;;;0.64;nan
12146;BME280;6136;47.032;15.398;2022-12-07T05:59:38;97346.63;;;0.64;nan
12146;BME280;6136;47.032;15.398;2022-12-07T06:02:07;97351.03;;;0.62;nan
12146;BME280;6136;47.032;15.398;2022-12-07T06:04:39;97330.50;;;0.50;nan
12146;BME280;6136;47.032;15.398;2022-12-07T06:07:08;97346.63;;;0.64;nan
12146;BME280;6136;47.032;15.398;2022-12-07T06:09:37;97349.31;;;0.61;nan
12146;BME280;6136;47.032;15.398;2022-12-07T06:12:06;97346.97;;;0.52;nan
12146;BME280;6136;47.032;15.398;2022-12-07T06:14:51;97339.28;;;0.46;nan
12146;BME280;6136;47.032;15.398;2022-12-07T06:17:20;97354.69;;;0.55;nan
12146;BME280;6136;47.032;15.398;2022-12-07T06:19:49;97355.91;;;0.42;nan
12146;BME280;6136;47.032;15.398;2022-12-07T06:22:18;97362.66;;;0.49;nan
12146;BME280;6136;47.032;15.398;2022-12-07T06:24:46;97360.88;;;0.51;nan
12146;BME280;6136;47.032;15.398;2022-12-07T06:27:14;97372.03;;;0.56;nan
12146;BME280;6136;47.032;15.398;2022-12-07T06:29:42;97370.41;;;0.52;nan
12146;BME280;6136;47.032;15.398;2022-12-07T06:32:11;97367.16;;;0.44;nan
12146;BME280;6136;47.032;15.398;2022-12-07T06:34:39;97370.69;;;0.41;nan
12146;BME280;6136;47.032;15.398;2022-12-07T06:37:08;97372.41;;;0.42;nan
12146;BME280;6136;47.032;15.398;2022-12-07T06:39:36;97381.88;;;0.45;nan
12146;BME280;6136;47.032;15.398;2022-12-07T06:42:05;97372.38;;;0.44;nan
12146;BME280;6136;47.032;15.398;2022-12-07T06:44:33;97380.97;;;0.46;nan
12146;BME280;6136;47.032;15.398;2022-12-07T06:47:02;97389.84;;;0.38;nan
12146;BME280;6136;47.032;15.398;2022-12-07T06:49:51;97395.00;;;0.42;nan
12146;BME280;6136;47.032;15.398;2022-12-07T06:52:20;97381.31;;;0.32;nan
12146;BME280;6136;47.032;15.398;2022-12-07T06:54:49;97394.91;;;0.45;nan
12146;BME280;6136;47.032;15.398;2022-12-07T06:57:17;97383.19;;;0.27;nan
12146;BME280;6136;47.032;15.398;2022-12-07T06:59:46;97415.91;;;0.38;nan
12146;BME280;6136;47.032;15.398;2022-12-07T07:02:15;97413.41;;;0.35;nan
12146;BME280;6136;47.032;15.398;2022-12-07T07:04:43;97407.34;;;0.33;nan
12146;BME280;6136;47.032;15.398;2022-12-07T07:07:11;97402.22;;;0.30;nan
12146;BME280;6136;47.032;15.398;2022-12-07T07:09:41;97398.66;;;0.34;nan
12146;BME280;6136;47.032;15.398;2022-12-07T07:12:09;97394.38;;;0.30;nan
12146;BME280;6136;47.032;15.398;2022-12-07T07:14:37;97394.28;;;0.35;nan
12146;BME280;6136;47.032;15.398;2022-12-07T07:17:06;97413.97;;;0.47;nan
12146;BME280;6136;47.032;15.398;2022-12-07T07:19:34;97388.91;;;0.43;nan
12146;BME280;6136;47.032;15.398;2022-12-07T07:22:03;97406.66;;;0.61;nan
12146;BME280;6136;47.032;15.398;2022-12-07T07:24:32;97395.47;;;0.57;nan
12146;BME280;6136;47.032;15.398;2022-12-07T07:27:01;97389.25;;;0.63;nan
12146;BME280;6136;47.032;15.398;2022-12-07T07:29:30;97413.16;;;0.78;nan
12146;BME280;6136;47.032;15.398;2022-12-07T07:31:58;97407.91;;;0.80;nan
12146;BME280;6136;47.032;15.398;2022-12-07T07:34:32;97411.41;;;0.79;nan
12146;BME280;6136;47.032;15.398;2022-12-07T07:37:00;97418.91;;;0.91;nan
12146;BME280;6136;47.032;15.398;2022-12-07T07:39:28;97398.22;;;0.85;nan
12146;BME280;6136;47.032;15.398;2022-12-07T07:41:56;97414.53;;;0.92;nan
12146;BME280;6136;47.032;15.398;2022-12-07T07:44:28;97412.63;;;0.98;nan
12146;BME280;6136;47.032;15.398;2022-12-07T07:47:00;97403.09;;;0.97;nan
12146;BME280;6136;47.032;15.398;2022-12-07T07:49:29;97404.31;;;0.84;nan
12146;BME280;6136;47.032;15.398;2022-12-07T07:51:57;97418.75;;;0.97;nan
12146;BME280;6136;47.032;15.398;2022-12-07T07:54:25;97416.13;;;0.97;nan
12146;BME280;6136;47.032;15.398;2022-12-07T07:56:53;97412.63;;;0.98;nan
12146;BME280;6136;47.032;15.398;2022-12-07T07:59:21;97401.94;;;1.07;nan
12146;BME280;6136;47.032;15.398;2022-12-07T08:01:51;97407.34;;;1.01;nan
12146;BME280;6136;47.032;15.398;2022-12-07T08:04:20;97410.78;;;1.03;nan
12146;BME280;6136;47.032;15.398;2022-12-07T08:06:48;97401.03;;;1.10;nan
12146;BME280;6136;47.032;15.398;2022-12-07T08:09:16;97411.06;;;1.24;nan
12146;BME280;6136;47.032;15.398;2022-12-07T08:11:44;97404.97;;;1.25;nan
12146;BME280;6136;47.032;15.398;2022-12-07T08:14:13;97416.09;;;1.31;nan
12146;BME280;6136;47.032;15.398;2022-12-07T08:16:41;97402.72;;;1.42;nan
12146;BME280;6136;47.032;15.398;2022-12-07T08:19:11;97402.72;;;1.42;nan
12146;BME280;6136;47.032;15.398;2022-12-07T08:21:39;97423.34;;;1.51;nan
12146;BME280;6136;47.032;15.398;2022-12-07T08:24:07;97419.91;;;1.49;nan
12146;BME280;6136;47.032;15.398;2022-12-07T08:26:36;97432.06;;;1.50;nan
12146;BME280;6136;47.032;15.398;2022-12-07T08:29:04;97426.06;;;1.48;nan
12146;BME280;6136;47.032;15.398;2022-12-07T08:31:32;97416.41;;;1.50;nan
12146;BME280;6136;47.032;15.398;2022-12-07T08:34:00;97436.28;;;1.55;nan
12146;BME280;6136;47.032;15.398;2022-12-07T08:36:30;97435.31;;;1.58;nan
12146;BME280;6136;47.032;15.398;2022-12-07T08:38:58;97440.03;;;1.76;nan
12146;BME280;6136;47.032;15.398;2022-12-07T08:41:49;97421.81;;;1.73;nan
12146;BME280;6136;47.032;15.398;2022-12-07T08:44:18;97432.72;;;1.87;nan
12146;BME280;6136;47.032;15.398;2022-12-07T08:46:51;97442.19;;;1.91;nan
12146;BME280;6136;47.032;15.398;2022-12-07T08:49:23;97442.00;;;1.98;nan
12146;BME280;6136;47.032;15.398;2022-12-07T08:51:54;97439.19;;;2.04;nan
12146;BME280;6136;47.032;15.398;2022-12-07T08:54:23;97430.25;;;1.83;nan
12146;BME280;6136;47.032;15.398;2022-12-07T08:56:51;97453.53;;;1.90;nan
12146;BME280;6136;47.032;15.398;2022-12-07T08:59:26;97447.88;;;2.04;nan
12146;BME280;6136;47.032;15.398;2022-12-07T09:01:55;97452.19;;;2.07;nan
12146;BME280;6136;47.032;15.398;2022-12-07T09:04:23;97440.97;;;2.02;nan
12146;BME280;6136;47.032;15.398;2022-12-07T09:06:53;97449.38;;;2.13;nan
12146;BME280;6136;47.032;15.398;2022-12-07T09:09:22;97458.81;;;2.17;nan
12146;BME280;6136;47.032;15.398;2022-12-07T09:11:52;97440.75;;;2.09;nan
12146;BME280;6136;47.032;15.398;2022-12-07T09:14:21;97457.59;;;2.28;nan
12146;BME280;6136;47.032;15.398;2022-12-07T09:16:49;97459.13;;;2.36;nan
12146;BME280;6136;47.032;15.398;2022-12-07T09:19:17;97432.72;;;2.15;nan
12146;BME280;6136;47.032;15.398;2022-12-07T09:21:46;97453.06;;;2.33;nan
12146;BME280;6136;47.032;15.398;2022-12-07T09:24:15;97444.59;;;2.25;nan
12146;BME280;6136;47.032;15.398;2022-12-07T09:26:44;97434.22;;;2.22;nan
12146;BME280;6136;47.032;15.398;2022-12-07T09:29:12;97448.28;;;2.46;nan
12146;BME280;6136;47.032;15.398;2022-12-07T09:31:40;97438.16;;;2.37;nan
12146;BME280;6136;47.032;15.398;2022-12-07T09:34:09;97455.44;;;2.41;nan
12146;BME280;6136;47.032;15.398;2022-12-07T09:36:37;97450.31;;;2.64;nan
12146;BME280;6136;47.032;15.398;2022-12-07T09:39:07;97443.72;;;2.53;nan
12146;BME280;6136;47.032;15.398;2022-12-07T09:41:40;97449.50;;;2.62;nan
12146;BME280;6136;47.032;15.398;2022-12-07T09:44:12;97441.25;;;2.74;nan
12146;BME280;6136;47.032;15.398;2022-12-07T09:46:43;97440.66;;;2.93;nan
12146;BME280;6136;47.032;15.398;2022-12-07T09:49:14;97427.06;;;2.82;nan
12146;BME280;6136;47.032;15.398;2022-12-07T09:51:44;97427.56;;;2.93;nan
12146;BME280;6136;47.032;15.398;2022-12-07T09:54:15;97422.13;;;2.99;nan
12146;BME280;6136;47.032;15.398;2022-12-07T09:56:45;97423.97;;;3.20;nan
12146;BME280;6136;47.032;15.398;2022-12-07T09:59:17;97429.25;;;3.43;nan
12146;BME280;6136;47.032;15.398;2022-12-07T10:01:47;97400.75;;;3.59;nan
12146;BME280;6136;47.032;15.398;2022-12-07T10:04:20;97415.38;;;3.65;nan
12146;BME280;6136;47.032;15.398;2022-12-07T10:06:49;97422.22;;;3.45;nan
12146;BME280;6136;47.032;15.398;2022-12-07T10:09:20;97419.69;;;3.42;nan
12146;BME280;6136;47.032;15.398;2022-12-07T10:12:00;97417.03;;;3.19;nan
12146;BME280;6136;47.032;15.398;2022-12-07T10:14:31;97408.53;;;3.12;nan
12146;BME280;6136;47.032;15.398;2022-12-07T10:17:32;97410.34;;;3.35;nan
12146;BME280;6136;47.032;15.398;2022-12-07T10:20:15;97406.31;;;3.50;nan
12146;BME280;6136;47.032;15.398;2022-12-07T10:22:55;97419.25;;;3.55;nan
12146;BME280;6136;47.032;15.398;2022-12-07T10:25:27;97416.63;;;3.55;nan
12146;BME280;6136;47.032;15.398;2022-12-07T10:28:14;97416.28;;;3.64;nan
12146;BME280;6136;47.032;15.398;2022-12-07T10:30:50;97415.03;;;3.50;nan
12146;BME280;6136;47.032;15.398;2022-12-07T10:33:48;97411.59;;;3.95;nan
12146;BME280;6136;47.032;15.398;2022-12-07T10:36:22;97412.81;;;4.30;nan
12146;BME280;6136;47.032;15.398;2022-12-07T10:38:53;97412.34;;;4.42;nan
12146;BME280;6136;47.032;15.398;2022-12-07T10:41:26;97404.44;;;4.44;nan
12146;BME280;6136;47.032;15.398;2022-12-07T10:43:57;97388.16;;;4.36;nan
12146;BME280;6136;47.032;15.398;2022-12-07T10:46:49;97381.84;;;4.40;nan
12146;BME280;6136;47.032;15.398;2022-12-07T10:49:50;97392.16;;;4.86;nan
12146;BME280;6136;47.032;15.398;2022-12-07T10:52:34;97382.69;;;5.23;nan
12146;BME280;6136;47.032;15.398;2022-12-07T10:55:15;97382.06;;;5.75;nan
12146;BME280;6136;47.032;15.398;2022-12-07T10:57:53;97381.72;;;6.20;nan
12146;BME280;6136;47.032;15.398;2022-12-07T11:00:29;97380.34;;;6.67;nan
12146;BME280;6136;47.032;15.398;2022-12-07T11:03:25;97378.16;;;6.92;nan
12146;BME280;6136;47.032;15.398;2022-12-07T11:06:05;97376.44;;;6.91;nan
12146;BME280;6136;47.032;15.398;2022-12-07T11:08:45;97373.88;;;6.89;nan
12146;BME280;6136;47.032;15.398;2022-12-07T11:11:23;97370.88;;;6.80;nan
12146;BME280;6136;47.032;15.398;2022-12-07T11:14:01;97365.31;;;6.86;nan
12146;BME280;6136;47.032;15.398;2022-12-07T11:16:51;97376.38;;;7.10;nan
12146;BME280;6136;47.032;15.398;2022-12-07T11:19:42;97378.97;;;7.77;nan
12146;BME280;6136;47.032;15.398;2022-12-07T11:22:24;97355.41;;;7.90;nan
12146;BME280;6136;47.032;15.398;2022-12-07T11:25:02;97364.91;;;8.24;nan
12146;BME280;6136;47.032;15.398;2022-12-07T11:27:47;97362.84;;;8.60;nan
12146;BME280;6136;47.032;15.398;2022-12-07T11:30:18;97362.97;;;7.96;nan
12146;BME280;6136;47.032;15.398;2022-12-07T11:33:00;97358.09;;;7.72;nan
12146;BME280;6136;47.032;15.398;2022-12-07T11:35:45;97340.41;;;7.41;nan
12146;BME280;6136;47.032;15.398;2022-12-07T11:38:22;97341.19;;;7.11;nan
12146;BME280;6136;47.032;15.398;2022-12-07T11:40:58;97352.06;;;6.87;nan
12146;BME280;6136;47.032;15.398;2022-12-07T11:43:55;97346.94;;;6.50;nan
12146;BME280;6136;47.032;15.398;2022-12-07T11:46:27;97345.75;;;6.38;nan
12146;BME280;6136;47.032;15.398;2022-12-07T11:49:04;97335.00;;;6.43;nan
12146;BME280;6136;47.032;15.398;2022-12-07T11:51:38;97342.63;;;6.13;nan
12146;BME280;6136;47.032;15.398;2022-12-07T11:54:14;97321.91;;;5.86;nan
12146;BME280;6136;47.032;15.398;2022-12-07T11:56:46;97319.88;;;5.74;nan
12146;BME280;6136;47.032;15.398;2022-12-07T11:59:22;97335.22;;;5.83;nan
12146;BME280;6136;47.032;15.398;2022-12-07T12:01:54;97316.75;;;5.85;nan
12146;BME280;6136;47.032;15.398;2022-12-07T12:04:31;97341.25;;;5.85;nan
12146;BME280;6136;47.032;15.398;2022-12-07T12:07:00;97329.09;;;6.20;nan
12146;BME280;6136;47.032;15.398;2022-12-07T12:09:52;97325.63;;;6.54;nan
12146;BME280;6136;47.032;15.398;2022-12-07T12:16:02;97318.34;;;7.11;nan
12146;BME280;6136;47.032;15.398;2022-12-07T12:18:46;97325.06;;;7.17;nan
12146;BME280;6136;47.032;15.398;2022-12-07T12:21:26;97316.72;;;6.91;nan
12146;BME280;6136;47.032;15.398;2022-12-07T12:23:56;97300.50;;;7.16;nan
12146;BME280;6136;47.032;15.398;2022-12-07T12:26:29;97307.06;;;7.25;nan
12146;BME280;6136;47.032;15.398;2022-12-07T12:29:00;97308.25;;;7.68;nan
12146;BME280;6136;47.032;15.398;2022-12-07T12:31:33;97306.69;;;7.79;nan
12146;BME280;6136;47.032;15.398;2022-12-07T12:34:29;97313.31;;;7.71;nan
12146;BME280;6136;47.032;15.398;2022-12-07T12:36:59;97299.41;;;7.69;nan
12146;BME280;6136;47.032;15.398;2022-12-07T12:39:29;97293.78;;;7.75;nan
12146;BME280;6136;47.032;15.398;2022-12-07T12:41:58;97312.81;;;7.80;nan
12146;BME280;6136;47.032;15.398;2022-12-07T12:45:04;97309.59;;;8.06;nan
12146;BME280;6136;47.032;15.398;2022-12-07T12:47:41;97307.63;;;8.10;nan
12146;BME280;6136;47.032;15.398;2022-12-07T12:50:20;97300.06;;;8.35;nan
12146;BME280;6136;47.032;15.398;2022-12-07T12:52:56;97319.47;;;7.87;nan
12146;BME280;6136;47.032;15.398;2022-12-07T12:58:41;97316.03;;;7.38;nan
12146;BME280;6136;47.032;15.398;2022-12-07T13:01:43;97316.88;;;7.38;nan
12146;BME280;6136;47.032;15.398;2022-12-07T13:04:25;97312.03;;;7.14;nan
12146;BME280;6136;47.032;15.398;2022-12-07T13:06:54;97308.09;;;7.05;nan
12146;BME280;6136;47.032;15.398;2022-12-07T13:09:26;97307.38;;;6.69;nan
12146;BME280;6136;47.032;15.398;2022-12-07T13:12:01;97306.75;;;6.63;nan
12146;BME280;6136;47.032;15.398;2022-12-07T13:14:42;97301.19;;;6.35;nan
12146;BME280;6136;47.032;15.398;2022-12-07T13:17:11;97308.03;;;6.20;nan
12146;BME280;6136;47.032;15.398;2022-12-07T13:19:58;97313.19;;;6.05;nan
12146;BME280;6136;47.032;15.398;2022-12-07T13:22:51;97302.66;;;5.86;nan
12146;BME280;6136;47.032;15.398;2022-12-07T13:25:36;97307.22;;;5.64;nan
12146;BME280;6136;47.032;15.398;2022-12-07T13:28:10;97317.34;;;5.54;nan
12146;BME280;6136;47.032;15.398;2022-12-07T13:30:46;97311.91;;;5.57;nan
12146;BME280;6136;47.032;15.398;2022-12-07T13:33:17;97307.38;;;5.42;nan
12146;BME280;6136;47.032;15.398;2022-12-07T13:35:46;97307.53;;;5.39;nan
12146;BME280;6136;47.032;15.398;2022-12-07T13:38:23;97297.66;;;5.05;nan
12146;BME280;6136;47.032;15.398;2022-12-07T13:41:03;97307.06;;;4.90;nan
12146;BME280;6136;47.032;15.398;2022-12-07T13:43:31;97316.66;;;4.91;nan
12146;BME280;6136;47.032;15.398;2022-12-07T13:46:11;97298.88;;;4.78;nan
12146;BME280;6136;47.032;15.398;2022-12-07T13:48:45;97299.19;;;4.90;nan
12146;BME280;6136;47.032;15.398;2022-12-07T13:51:19;97300.88;;;4.73;nan
12146;BME280;6136;47.032;15.398;2022-12-07T13:53:54;97286.09;;;4.70;nan
12146;BME280;6136;47.032;15.398;2022-12-07T13:56:28;97293.69;;;4.76;nan
12146;BME280;6136;47.032;15.398;2022-12-07T13:59:13;97314.44;;;4.62;nan
12146;BME280;6136;47.032;15.398;2022-12-07T14:01:42;97314.59;;;4.59;nan
12146;BME280;6136;47.032;15.398;2022-12-07T14:09:54;97299.56;;;4.62;nan
12146;BME280;6136;47.032;15.398;2022-12-07T14:12:25;97294.16;;;4.45;nan
12146;BME280;6136;47.032;15.398;2022-12-07T14:14:54;97318.50;;;4.49;nan